sensor_id;sensor_type;location;lat;lon;timestamp;pressure;altitude;pressure_sealevel;temperature;humidity
31331;BME280;34067;39.548;-76.088;2023-04-21T00:01:23;101759.38;;;22.40;47.97
31331;BME280;34067;39.548;-76.088;2023-04-21T00:03:51;101759.62;;;22.04;47.81
31331;BME280;34067;39.548;-76.088;2023-04-21T00:06:19;101758.83;;;22.01;48.15
31331;BME280;34067;39.548;-76.088;2023-04-21T00:08:47;101765.48;;;21.50;49.80
31331;BME280;34067;39.548;-76.088;2023-04-21T00:11:15;101763.83;;;21.54;50.11
31331;BME280;34067;39.548;-76.088;2023-04-21T00:13:43;101766.99;;;21.92;49.10
31331;BME280;34067;39.548;-76.088;2023-04-21T00:16:10;101771.81;;;21.94;49.07
31331;BME280;34067;39.548;-76.088;2023-04-21T00:18:39;101771.99;;;21.92;49.27
31331;BME280;34067;39.548;-76.088;2023-04-21T00:21:06;101780.92;;;21.46;48.91
31331;BME280;34067;39.548;-76.088;2023-04-21T00:23:34;101780.34;;;21.63;49.62
31331;BME280;34067;39.548;-76.088;2023-04-21T00:26:03;101784.09;;;21.43;49.56
31331;BME280;34067;39.548;-76.088;2023-04-21T00:28:30;101780.44;;;21.31;49.31
31331;BME280;34067;39.548;-76.088;2023-04-21T00:30:59;101783.43;;;21.23;48.13
31331;BME280;34067;39.548;-76.088;2023-04-21T00:33:27;101784.50;;;21.16;48.28
31331;BME280;34067;39.548;-76.088;2023-04-21T00:35:55;101790.36;;;20.89;48.56
31331;BME280;34067;39.548;-76.088;2023-04-21T00:38:23;101793.93;;;21.00;49.69
31331;BME280;34067;39.548;-76.088;2023-04-21T00:40:51;101796.92;;;21.42;49.90
31331;BME280;34067;39.548;-76.088;2023-04-21T00:43:19;101796.42;;;21.03;50.56
31331;BME280;34067;39.548;-76.088;2023-04-21T00:45:47;101796.74;;;20.00;50.88
31331;BME280;34067;39.548;-76.088;2023-04-21T00:48:15;101795.47;;;20.75;49.64
31331;BME280;34067;39.548;-76.088;2023-04-21T00:50:44;101795.73;;;21.01;48.87
31331;BME280;34067;39.548;-76.088;2023-04-21T00:53:14;101797.62;;;20.85;48.41
31331;BME280;34067;39.548;-76.088;2023-04-21T00:55:42;101801.01;;;20.25;48.33
31331;BME280;34067;39.548;-76.088;2023-04-21T00:58:10;101802.95;;;21.26;48.10
31331;BME280;34067;39.548;-76.088;2023-04-21T01:00:38;101806.27;;;20.74;49.52
31331;BME280;34067;39.548;-76.088;2023-04-21T01:03:06;101802.23;;;20.55;50.43
31331;BME280;34067;39.548;-76.088;2023-04-21T01:05:33;101805.17;;;20.99;50.74
31331;BME280;34067;39.548;-76.088;2023-04-21T01:08:02;101807.30;;;20.15;50.78
31331;BME280;34067;39.548;-76.088;2023-04-21T01:10:29;101800.06;;;19.75;51.24
31331;BME280;34067;39.548;-76.088;2023-04-21T01:12:57;101801.54;;;19.63;51.21
31331;BME280;34067;39.548;-76.088;2023-04-21T01:15:25;101800.10;;;19.56;50.90
31331;BME280;34067;39.548;-76.088;2023-04-21T01:17:53;101805.40;;;19.81;51.40
31331;BME280;34067;39.548;-76.088;2023-04-21T01:20:21;101799.70;;;19.97;51.60
31331;BME280;34067;39.548;-76.088;2023-04-21T01:22:49;101798.52;;;19.67;51.88
31331;BME280;34067;39.548;-76.088;2023-04-21T01:25:17;101796.93;;;19.44;52.84
31331;BME280;34067;39.548;-76.088;2023-04-21T01:27:45;101802.87;;;19.27;54.36
31331;BME280;34067;39.548;-76.088;2023-04-21T01:30:13;101803.85;;;18.67;56.67
31331;BME280;34067;39.548;-76.088;2023-04-21T01:32:41;101803.26;;;19.56;55.99
31331;BME280;34067;39.548;-76.088;2023-04-21T01:35:09;101803.49;;;19.36;55.58
31331;BME280;34067;39.548;-76.088;2023-04-21T01:37:38;101802.31;;;18.95;54.75
31331;BME280;34067;39.548;-76.088;2023-04-21T01:40:07;101801.25;;;19.01;55.50
31331;BME280;34067;39.548;-76.088;2023-04-21T01:42:38;101798.64;;;18.90;57.05
31331;BME280;34067;39.548;-76.088;2023-04-21T01:45:07;101796.50;;;18.41;56.11
31331;BME280;34067;39.548;-76.088;2023-04-21T01:47:36;101797.59;;;18.44;57.37
31331;BME280;34067;39.548;-76.088;2023-04-21T01:50:05;101799.73;;;16.94;60.01
31331;BME280;34067;39.548;-76.088;2023-04-21T01:52:33;101794.48;;;17.42;60.48
31331;BME280;34067;39.548;-76.088;2023-04-21T01:55:02;101795.60;;;17.52;62.03
31331;BME280;34067;39.548;-76.088;2023-04-21T01:57:30;101796.17;;;16.84;63.42
31331;BME280;34067;39.548;-76.088;2023-04-21T01:59:57;101798.38;;;16.84;62.62
31331;BME280;34067;39.548;-76.088;2023-04-21T02:02:26;101802.76;;;16.69;64.47
31331;BME280;34067;39.548;-76.088;2023-04-21T02:04:54;101799.57;;;17.36;62.87
31331;BME280;34067;39.548;-76.088;2023-04-21T02:07:21;101801.29;;;17.37;65.61
31331;BME280;34067;39.548;-76.088;2023-04-21T02:09:50;101805.28;;;17.26;64.42
31331;BME280;34067;39.548;-76.088;2023-04-21T02:12:17;101801.99;;;16.97;63.92
31331;BME280;34067;39.548;-76.088;2023-04-21T02:14:45;101803.61;;;16.09;68.83
31331;BME280;34067;39.548;-76.088;2023-04-21T02:17:13;101808.69;;;15.98;69.28
31331;BME280;34067;39.548;-76.088;2023-04-21T02:19:41;101805.48;;;16.37;69.79
31331;BME280;34067;39.548;-76.088;2023-04-21T02:22:09;101801.50;;;16.17;71.76
31331;BME280;34067;39.548;-76.088;2023-04-21T02:24:37;101800.47;;;15.10;73.56
31331;BME280;34067;39.548;-76.088;2023-04-21T02:27:05;101800.23;;;15.45;72.56
31331;BME280;34067;39.548;-76.088;2023-04-21T02:29:33;101801.73;;;16.44;71.42
31331;BME280;34067;39.548;-76.088;2023-04-21T02:32:02;101798.22;;;15.46;73.90
31331;BME280;34067;39.548;-76.088;2023-04-21T02:34:30;101796.79;;;15.08;75.99
31331;BME280;34067;39.548;-76.088;2023-04-21T02:36:57;101802.95;;;15.56;73.77
31331;BME280;34067;39.548;-76.088;2023-04-21T02:39:26;101802.05;;;15.18;76.11
31331;BME280;34067;39.548;-76.088;2023-04-21T02:41:53;101803.27;;;14.75;76.97
31331;BME280;34067;39.548;-76.088;2023-04-21T02:44:21;101794.23;;;14.70;75.62
31331;BME280;34067;39.548;-76.088;2023-04-21T02:46:49;101792.29;;;15.51;75.21
31331;BME280;34067;39.548;-76.088;2023-04-21T02:49:17;101791.43;;;15.06;76.97
31331;BME280;34067;39.548;-76.088;2023-04-21T02:51:45;101793.27;;;15.85;76.70
31331;BME280;34067;39.548;-76.088;2023-04-21T02:54:13;101798.16;;;15.35;74.37
31331;BME280;34067;39.548;-76.088;2023-04-21T02:56:41;101794.77;;;15.71;72.95
31331;BME280;34067;39.548;-76.088;2023-04-21T02:59:09;101794.96;;;15.21;73.50
31331;BME280;34067;39.548;-76.088;2023-04-21T03:01:38;101790.16;;;14.60;78.07
31331;BME280;34067;39.548;-76.088;2023-04-21T03:04:06;101789.51;;;14.66;77.36
31331;BME280;34067;39.548;-76.088;2023-04-21T03:06:34;101795.24;;;14.65;79.96
31331;BME280;34067;39.548;-76.088;2023-04-21T03:09:02;101794.10;;;14.50;80.23
31331;BME280;34067;39.548;-76.088;2023-04-21T03:11:30;101795.39;;;14.62;78.58
31331;BME280;34067;39.548;-76.088;2023-04-21T03:13:58;101798.36;;;15.38;73.75
31331;BME280;34067;39.548;-76.088;2023-04-21T03:17:04;101801.90;;;15.19;75.12
31331;BME280;34067;39.548;-76.088;2023-04-21T03:19:54;101803.45;;;14.80;76.22
31331;BME280;34067;39.548;-76.088;2023-04-21T03:22:37;101806.31;;;15.03;80.60
31331;BME280;34067;39.548;-76.088;2023-04-21T03:25:11;101814.63;;;13.54;85.72
31331;BME280;34067;39.548;-76.088;2023-04-21T03:28:10;101817.06;;;14.54;83.56
31331;BME280;34067;39.548;-76.088;2023-04-21T03:30:58;101820.33;;;13.68;86.79
31331;BME280;34067;39.548;-76.088;2023-04-21T03:33:26;101825.26;;;14.74;82.00
31331;BME280;34067;39.548;-76.088;2023-04-21T03:35:53;101824.01;;;14.99;79.18
31331;BME280;34067;39.548;-76.088;2023-04-21T03:38:21;101823.40;;;15.06;79.92
31331;BME280;34067;39.548;-76.088;2023-04-21T03:40:49;101821.73;;;14.89;80.75
31331;BME280;34067;39.548;-76.088;2023-04-21T03:43:17;101817.22;;;15.32;80.99
31331;BME280;34067;39.548;-76.088;2023-04-21T03:45:46;101817.37;;;15.74;81.00
31331;BME280;34067;39.548;-76.088;2023-04-21T03:48:14;101816.39;;;14.45;82.67
31331;BME280;34067;39.548;-76.088;2023-04-21T03:50:42;101819.41;;;14.69;83.85
31331;BME280;34067;39.548;-76.088;2023-04-21T03:53:10;101819.72;;;13.48;86.68
31331;BME280;34067;39.548;-76.088;2023-04-21T03:55:38;101816.01;;;14.53;80.74
31331;BME280;34067;39.548;-76.088;2023-04-21T03:58:06;101815.46;;;14.03;83.56
31331;BME280;34067;39.548;-76.088;2023-04-21T04:00:34;101810.71;;;14.59;82.82
31331;BME280;34067;39.548;-76.088;2023-04-21T04:03:01;101810.60;;;14.48;81.61
31331;BME280;34067;39.548;-76.088;2023-04-21T04:05:30;101810.51;;;13.29;88.28
31331;BME280;34067;39.548;-76.088;2023-04-21T04:07:58;101806.79;;;12.82;92.45
31331;BME280;34067;39.548;-76.088;2023-04-21T04:10:26;101810.38;;;13.32;90.36
31331;BME280;34067;39.548;-76.088;2023-04-21T04:12:53;101812.13;;;13.81;90.14
31331;BME280;34067;39.548;-76.088;2023-04-21T04:15:21;101810.14;;;13.81;87.93
31331;BME280;34067;39.548;-76.088;2023-04-21T04:17:49;101813.13;;;13.74;89.90
31331;BME280;34067;39.548;-76.088;2023-04-21T04:20:17;101806.50;;;14.16;89.97
31331;BME280;34067;39.548;-76.088;2023-04-21T04:22:45;101809.06;;;13.25;90.60
31331;BME280;34067;39.548;-76.088;2023-04-21T04:25:13;101803.53;;;14.16;90.41
31331;BME280;34067;39.548;-76.088;2023-04-21T04:27:41;101803.69;;;13.43;91.16
31331;BME280;34067;39.548;-76.088;2023-04-21T04:30:10;101802.31;;;13.66;87.05
31331;BME280;34067;39.548;-76.088;2023-04-21T04:32:38;101799.20;;;15.29;84.99
31331;BME280;34067;39.548;-76.088;2023-04-21T04:35:08;101801.92;;;14.33;84.65
31331;BME280;34067;39.548;-76.088;2023-04-21T04:37:37;101801.06;;;14.33;84.53
31331;BME280;34067;39.548;-76.088;2023-04-21T04:40:05;101799.87;;;14.17;86.99
31331;BME280;34067;39.548;-76.088;2023-04-21T04:42:34;101801.83;;;14.72;83.67
31331;BME280;34067;39.548;-76.088;2023-04-21T04:45:02;101797.20;;;14.12;84.45
31331;BME280;34067;39.548;-76.088;2023-04-21T04:47:30;101792.32;;;14.23;84.53
31331;BME280;34067;39.548;-76.088;2023-04-21T04:49:58;101789.00;;;14.38;84.32
31331;BME280;34067;39.548;-76.088;2023-04-21T04:52:25;101790.06;;;14.04;85.70
31331;BME280;34067;39.548;-76.088;2023-04-21T04:54:53;101790.82;;;14.18;84.53
31331;BME280;34067;39.548;-76.088;2023-04-21T04:57:21;101787.31;;;15.36;84.53
31331;BME280;34067;39.548;-76.088;2023-04-21T04:59:54;101791.59;;;14.44;86.21
31331;BME280;34067;39.548;-76.088;2023-04-21T05:03:15;101778.07;;;14.59;83.56
31331;BME280;34067;39.548;-76.088;2023-04-21T05:05:43;101773.51;;;13.36;86.61
31331;BME280;34067;39.548;-76.088;2023-04-21T05:08:11;101774.82;;;13.51;89.41
31331;BME280;34067;39.548;-76.088;2023-04-21T05:10:38;101779.49;;;13.18;92.68
31331;BME280;34067;39.548;-76.088;2023-04-21T05:13:06;101780.64;;;13.44;90.23
31331;BME280;34067;39.548;-76.088;2023-04-21T05:15:35;101782.67;;;13.50;89.50
31331;BME280;34067;39.548;-76.088;2023-04-21T05:18:02;101783.90;;;13.87;90.33
31331;BME280;34067;39.548;-76.088;2023-04-21T05:20:30;101781.49;;;13.27;91.60
31331;BME280;34067;39.548;-76.088;2023-04-21T05:22:58;101780.91;;;13.80;90.96
31331;BME280;34067;39.548;-76.088;2023-04-21T05:25:25;101778.99;;;13.18;92.43
31331;BME280;34067;39.548;-76.088;2023-04-21T05:27:53;101779.73;;;13.62;93.54
31331;BME280;34067;39.548;-76.088;2023-04-21T05:30:21;101775.67;;;13.33;94.87
31331;BME280;34067;39.548;-76.088;2023-04-21T05:32:49;101774.42;;;13.54;94.71
31331;BME280;34067;39.548;-76.088;2023-04-21T05:35:17;101770.27;;;13.99;89.77
31331;BME280;34067;39.548;-76.088;2023-04-21T05:37:44;101778.37;;;14.51;87.94
31331;BME280;34067;39.548;-76.088;2023-04-21T05:40:12;101776.44;;;14.29;83.91
31331;BME280;34067;39.548;-76.088;2023-04-21T05:42:39;101774.55;;;13.95;85.85
31331;BME280;34067;39.548;-76.088;2023-04-21T05:45:07;101776.67;;;13.26;87.11
31331;BME280;34067;39.548;-76.088;2023-04-21T05:47:35;101773.71;;;14.57;84.43
31331;BME280;34067;39.548;-76.088;2023-04-21T05:50:03;101773.03;;;14.61;82.34
31331;BME280;34067;39.548;-76.088;2023-04-21T05:52:32;101773.43;;;14.75;81.74
31331;BME280;34067;39.548;-76.088;2023-04-21T05:55:00;101772.98;;;14.34;83.53
31331;BME280;34067;39.548;-76.088;2023-04-21T05:57:28;101768.67;;;14.53;81.70
31331;BME280;34067;39.548;-76.088;2023-04-21T05:59:56;101764.61;;;13.82;83.61
31331;BME280;34067;39.548;-76.088;2023-04-21T06:02:25;101760.38;;;14.44;87.01
31331;BME280;34067;39.548;-76.088;2023-04-21T06:04:52;101761.96;;;13.77;87.03
31331;BME280;34067;39.548;-76.088;2023-04-21T06:07:20;101755.37;;;14.52;83.37
31331;BME280;34067;39.548;-76.088;2023-04-21T06:09:50;101758.92;;;13.73;86.96
31331;BME280;34067;39.548;-76.088;2023-04-21T06:12:19;101758.19;;;13.98;86.09
31331;BME280;34067;39.548;-76.088;2023-04-21T06:14:47;101759.05;;;13.53;87.72
31331;BME280;34067;39.548;-76.088;2023-04-21T06:17:16;101756.66;;;13.21;89.29
31331;BME280;34067;39.548;-76.088;2023-04-21T06:19:44;101759.06;;;13.06;92.01
31331;BME280;34067;39.548;-76.088;2023-04-21T06:22:11;101760.71;;;13.07;89.62
31331;BME280;34067;39.548;-76.088;2023-04-21T06:24:39;101755.28;;;12.82;88.54
31331;BME280;34067;39.548;-76.088;2023-04-21T06:27:10;101749.38;;;13.83;86.38
31331;BME280;34067;39.548;-76.088;2023-04-21T06:29:38;101748.72;;;13.12;90.08
31331;BME280;34067;39.548;-76.088;2023-04-21T06:32:06;101745.91;;;13.44;90.11
31331;BME280;34067;39.548;-76.088;2023-04-21T06:34:34;101741.36;;;13.41;88.93
31331;BME280;34067;39.548;-76.088;2023-04-21T06:37:02;101736.60;;;14.08;85.95
31331;BME280;34067;39.548;-76.088;2023-04-21T06:39:30;101736.85;;;13.81;86.55
31331;BME280;34067;39.548;-76.088;2023-04-21T06:41:58;101733.57;;;13.96;82.92
31331;BME280;34067;39.548;-76.088;2023-04-21T06:44:26;101731.12;;;14.05;83.42
31331;BME280;34067;39.548;-76.088;2023-04-21T06:46:53;101725.19;;;13.71;83.66
31331;BME280;34067;39.548;-76.088;2023-04-21T06:49:21;101719.23;;;14.10;84.96
31331;BME280;34067;39.548;-76.088;2023-04-21T06:51:49;101717.75;;;13.90;83.51
31331;BME280;34067;39.548;-76.088;2023-04-21T06:54:17;101721.53;;;13.12;86.39
31331;BME280;34067;39.548;-76.088;2023-04-21T06:56:45;101725.46;;;13.40;84.60
31331;BME280;34067;39.548;-76.088;2023-04-21T06:59:13;101725.98;;;13.24;84.59
31331;BME280;34067;39.548;-76.088;2023-04-21T07:01:41;101725.33;;;12.75;86.51
31331;BME280;34067;39.548;-76.088;2023-04-21T07:04:09;101723.58;;;13.77;84.87
31331;BME280;34067;39.548;-76.088;2023-04-21T07:06:37;101721.15;;;13.19;87.23
31331;BME280;34067;39.548;-76.088;2023-04-21T07:09:06;101721.39;;;12.45;88.45
31331;BME280;34067;39.548;-76.088;2023-04-21T07:11:33;101723.50;;;11.84;92.61
31331;BME280;34067;39.548;-76.088;2023-04-21T07:14:02;101723.12;;;11.89;93.58
31331;BME280;34067;39.548;-76.088;2023-04-21T07:16:30;101722.99;;;12.19;94.89
31331;BME280;34067;39.548;-76.088;2023-04-21T07:18:58;101720.17;;;12.81;88.46
31331;BME280;34067;39.548;-76.088;2023-04-21T07:21:26;101720.17;;;13.41;85.14
31331;BME280;34067;39.548;-76.088;2023-04-21T07:23:54;101720.21;;;13.11;83.33
31331;BME280;34067;39.548;-76.088;2023-04-21T07:26:22;101722.75;;;13.38;82.06
31331;BME280;34067;39.548;-76.088;2023-04-21T07:28:50;101723.64;;;13.36;82.44
31331;BME280;34067;39.548;-76.088;2023-04-21T07:31:18;101724.62;;;13.62;80.73
31331;BME280;34067;39.548;-76.088;2023-04-21T07:33:46;101723.87;;;14.29;78.95
31331;BME280;34067;39.548;-76.088;2023-04-21T07:36:14;101730.02;;;14.50;78.85
31331;BME280;34067;39.548;-76.088;2023-04-21T07:38:42;101731.12;;;14.50;76.79
31331;BME280;34067;39.548;-76.088;2023-04-21T07:41:11;101734.98;;;14.21;79.14
31331;BME280;34067;39.548;-76.088;2023-04-21T07:43:40;101738.58;;;14.02;79.69
31331;BME280;34067;39.548;-76.088;2023-04-21T07:46:08;101735.74;;;13.42;78.30
31331;BME280;34067;39.548;-76.088;2023-04-21T07:48:36;101740.51;;;14.61;76.33
31331;BME280;34067;39.548;-76.088;2023-04-21T07:51:05;101744.62;;;14.60;76.28
31331;BME280;34067;39.548;-76.088;2023-04-21T07:53:34;101745.26;;;13.78;80.85
31331;BME280;34067;39.548;-76.088;2023-04-21T07:56:01;101745.38;;;12.92;84.74
31331;BME280;34067;39.548;-76.088;2023-04-21T07:58:29;101739.91;;;12.62;85.58
31331;BME280;34067;39.548;-76.088;2023-04-21T08:00:58;101742.34;;;12.26;87.11
31331;BME280;34067;39.548;-76.088;2023-04-21T08:03:26;101740.51;;;12.77;84.79
31331;BME280;34067;39.548;-76.088;2023-04-21T08:05:54;101740.97;;;13.21;84.18
31331;BME280;34067;39.548;-76.088;2023-04-21T08:08:22;101739.18;;;12.83;81.82
31331;BME280;34067;39.548;-76.088;2023-04-21T08:10:50;101735.58;;;13.00;82.25
31331;BME280;34067;39.548;-76.088;2023-04-21T08:13:18;101733.88;;;13.48;80.48
31331;BME280;34067;39.548;-76.088;2023-04-21T08:15:46;101727.87;;;12.42;82.51
31331;BME280;34067;39.548;-76.088;2023-04-21T08:18:14;101722.33;;;13.57;80.08
31331;BME280;34067;39.548;-76.088;2023-04-21T08:20:42;101725.71;;;12.67;81.41
31331;BME280;34067;39.548;-76.088;2023-04-21T08:23:10;101726.17;;;13.20;81.31
31331;BME280;34067;39.548;-76.088;2023-04-21T08:25:38;101728.20;;;13.04;80.05
31331;BME280;34067;39.548;-76.088;2023-04-21T08:28:05;101728.83;;;13.44;79.77
31331;BME280;34067;39.548;-76.088;2023-04-21T08:30:33;101724.36;;;12.96;79.87
31331;BME280;34067;39.548;-76.088;2023-04-21T08:33:01;101722.01;;;12.71;79.09
31331;BME280;34067;39.548;-76.088;2023-04-21T08:35:29;101720.37;;;13.63;77.95
31331;BME280;34067;39.548;-76.088;2023-04-21T08:37:57;101720.40;;;12.93;78.50
31331;BME280;34067;39.548;-76.088;2023-04-21T08:40:31;101719.87;;;12.73;77.99
31331;BME280;34067;39.548;-76.088;2023-04-21T08:43:00;101723.50;;;12.66;80.57
31331;BME280;34067;39.548;-76.088;2023-04-21T08:45:28;101722.24;;;12.45;80.27
31331;BME280;34067;39.548;-76.088;2023-04-21T08:47:58;101724.18;;;10.71;82.67
31331;BME280;34067;39.548;-76.088;2023-04-21T08:50:27;101716.20;;;12.85;81.38
31331;BME280;34067;39.548;-76.088;2023-04-21T08:52:57;101716.53;;;12.81;82.29
31331;BME280;34067;39.548;-76.088;2023-04-21T08:55:28;101719.60;;;12.44;80.42
31331;BME280;34067;39.548;-76.088;2023-04-21T08:57:56;101717.87;;;12.92;80.61
31331;BME280;34067;39.548;-76.088;2023-04-21T09:00:24;101715.01;;;12.65;83.14
31331;BME280;34067;39.548;-76.088;2023-04-21T09:02:53;101709.70;;;12.55;81.81
31331;BME280;34067;39.548;-76.088;2023-04-21T09:05:22;101703.86;;;13.40;82.49
31331;BME280;34067;39.548;-76.088;2023-04-21T09:07:50;101699.94;;;11.96;86.00
31331;BME280;34067;39.548;-76.088;2023-04-21T09:10:22;101703.51;;;11.68;87.76
31331;BME280;34067;39.548;-76.088;2023-04-21T09:12:51;101702.33;;;11.67;88.14
31331;BME280;34067;39.548;-76.088;2023-04-21T09:15:20;101704.88;;;11.95;88.74
31331;BME280;34067;39.548;-76.088;2023-04-21T09:17:54;101715.89;;;11.56;89.81
31331;BME280;34067;39.548;-76.088;2023-04-21T09:20:22;101712.97;;;11.79;91.26
31331;BME280;34067;39.548;-76.088;2023-04-21T09:22:50;101709.15;;;11.30;89.80
31331;BME280;34067;39.548;-76.088;2023-04-21T09:25:20;101707.98;;;12.22;88.57
31331;BME280;34067;39.548;-76.088;2023-04-21T09:27:48;101714.68;;;11.19;93.59
31331;BME280;34067;39.548;-76.088;2023-04-21T09:30:19;101718.30;;;11.60;92.65
31331;BME280;34067;39.548;-76.088;2023-04-21T09:32:46;101717.09;;;11.66;93.02
31331;BME280;34067;39.548;-76.088;2023-04-21T09:35:14;101715.43;;;11.68;91.48
31331;BME280;34067;39.548;-76.088;2023-04-21T09:37:43;101712.48;;;12.12;88.75
31331;BME280;34067;39.548;-76.088;2023-04-21T09:40:13;101712.73;;;11.95;89.97
31331;BME280;34067;39.548;-76.088;2023-04-21T09:42:41;101715.13;;;11.83;88.03
31331;BME280;34067;39.548;-76.088;2023-04-21T09:45:10;101717.14;;;11.63;89.78
31331;BME280;34067;39.548;-76.088;2023-04-21T09:47:41;101722.08;;;11.71;89.95
31331;BME280;34067;39.548;-76.088;2023-04-21T09:50:11;101720.77;;;11.82;87.05
31331;BME280;34067;39.548;-76.088;2023-04-21T09:52:39;101722.24;;;12.35;89.10
31331;BME280;34067;39.548;-76.088;2023-04-21T09:55:11;101723.24;;;11.42;91.15
31331;BME280;34067;39.548;-76.088;2023-04-21T09:57:41;101713.48;;;12.28;85.96
31331;BME280;34067;39.548;-76.088;2023-04-21T10:00:14;101714.19;;;12.24;85.78
31331;BME280;34067;39.548;-76.088;2023-04-21T10:02:46;101716.36;;;12.22;87.25
31331;BME280;34067;39.548;-76.088;2023-04-21T10:05:15;101719.34;;;12.74;88.02
31331;BME280;34067;39.548;-76.088;2023-04-21T10:07:43;101721.12;;;12.17;90.10
31331;BME280;34067;39.548;-76.088;2023-04-21T10:10:18;101718.25;;;11.47;91.61
31331;BME280;34067;39.548;-76.088;2023-04-21T10:12:47;101717.29;;;10.86;96.25
31331;BME280;34067;39.548;-76.088;2023-04-21T10:15:33;101712.30;;;11.56;93.96
31331;BME280;34067;39.548;-76.088;2023-04-21T10:18:28;101710.75;;;12.30;91.13
31331;BME280;34067;39.548;-76.088;2023-04-21T10:20:57;101710.57;;;12.20;90.41
31331;BME280;34067;39.548;-76.088;2023-04-21T10:23:29;101706.55;;;11.83;86.76
31331;BME280;34067;39.548;-76.088;2023-04-21T10:26:08;101707.41;;;12.06;87.56
31331;BME280;34067;39.548;-76.088;2023-04-21T10:28:55;101711.47;;;11.73;92.23
31331;BME280;34067;39.548;-76.088;2023-04-21T10:31:30;101716.02;;;11.15;97.77
31331;BME280;34067;39.548;-76.088;2023-04-21T10:34:14;101717.06;;;11.35;96.00
31331;BME280;34067;39.548;-76.088;2023-04-21T10:37:06;101717.23;;;11.43;91.95
31331;BME280;34067;39.548;-76.088;2023-04-21T10:39:38;101712.78;;;12.38;88.91
31331;BME280;34067;39.548;-76.088;2023-04-21T10:42:27;101711.99;;;12.89;90.26
31331;BME280;34067;39.548;-76.088;2023-04-21T10:45:12;101718.41;;;11.41;88.86
31331;BME280;34067;39.548;-76.088;2023-04-21T10:47:45;101721.61;;;11.40;90.50
31331;BME280;34067;39.548;-76.088;2023-04-21T10:50:15;101718.98;;;12.54;88.55
31331;BME280;34067;39.548;-76.088;2023-04-21T10:52:45;101726.02;;;12.60;90.67
31331;BME280;34067;39.548;-76.088;2023-04-21T10:55:13;101729.27;;;11.14;93.48
31331;BME280;34067;39.548;-76.088;2023-04-21T10:57:44;101730.64;;;11.38;100.00
31331;BME280;34067;39.548;-76.088;2023-04-21T11:00:16;101728.78;;;11.62;100.00
31331;BME280;34067;39.548;-76.088;2023-04-21T11:02:57;101725.57;;;10.91;97.35
31331;BME280;34067;39.548;-76.088;2023-04-21T11:05:29;101729.58;;;11.22;98.99
31331;BME280;34067;39.548;-76.088;2023-04-21T11:08:07;101737.53;;;10.87;100.00
31331;BME280;34067;39.548;-76.088;2023-04-21T11:10:54;101737.99;;;11.06;100.00
31331;BME280;34067;39.548;-76.088;2023-04-21T11:13:25;101737.67;;;11.27;100.00
31331;BME280;34067;39.548;-76.088;2023-04-21T11:16:03;101740.20;;;11.20;97.72
31331;BME280;34067;39.548;-76.088;2023-04-21T11:18:39;101745.15;;;11.89;98.09
31331;BME280;34067;39.548;-76.088;2023-04-21T11:21:08;101739.32;;;11.83;95.92
31331;BME280;34067;39.548;-76.088;2023-04-21T11:23:39;101737.29;;;11.14;96.87
31331;BME280;34067;39.548;-76.088;2023-04-21T11:26:07;101734.95;;;11.93;95.64
31331;BME280;34067;39.548;-76.088;2023-04-21T11:28:35;101733.73;;;10.72;98.57
31331;BME280;34067;39.548;-76.088;2023-04-21T11:31:03;101729.75;;;11.39;100.00
31331;BME280;34067;39.548;-76.088;2023-04-21T11:33:35;101731.57;;;9.84;100.00
31331;BME280;34067;39.548;-76.088;2023-04-21T11:36:05;101730.64;;;11.32;100.00
31331;BME280;34067;39.548;-76.088;2023-04-21T11:38:38;101724.68;;;11.57;100.00
31331;BME280;34067;39.548;-76.088;2023-04-21T11:41:06;101727.36;;;12.53;98.49
31331;BME280;34067;39.548;-76.088;2023-04-21T11:43:35;101725.90;;;11.95;96.42
31331;BME280;34067;39.548;-76.088;2023-04-21T11:46:23;101731.81;;;11.96;97.62
31331;BME280;34067;39.548;-76.088;2023-04-21T11:49:00;101731.53;;;11.14;99.24
31331;BME280;34067;39.548;-76.088;2023-04-21T11:51:33;101732.29;;;11.26;100.00
31331;BME280;34067;39.548;-76.088;2023-04-21T11:54:04;101728.55;;;11.60;99.07
31331;BME280;34067;39.548;-76.088;2023-04-21T11:56:35;101729.40;;;11.79;96.06
31331;BME280;34067;39.548;-76.088;2023-04-21T11:59:07;101726.26;;;12.75;94.65
31331;BME280;34067;39.548;-76.088;2023-04-21T12:01:41;101719.94;;;13.13;93.90
31331;BME280;34067;39.548;-76.088;2023-04-21T12:04:13;101727.02;;;12.07;100.00
31331;BME280;34067;39.548;-76.088;2023-04-21T12:06:42;101724.16;;;12.19;97.18
31331;BME280;34067;39.548;-76.088;2023-04-21T12:09:16;101720.77;;;12.70;94.02
31331;BME280;34067;39.548;-76.088;2023-04-21T12:11:47;101719.97;;;12.01;91.92
31331;BME280;34067;39.548;-76.088;2023-04-21T12:14:16;101719.98;;;12.98;89.52
31331;BME280;34067;39.548;-76.088;2023-04-21T12:16:48;101719.00;;;12.72;90.27
31331;BME280;34067;39.548;-76.088;2023-04-21T12:19:22;101719.73;;;13.50;86.94
31331;BME280;34067;39.548;-76.088;2023-04-21T12:21:53;101719.41;;;11.90;88.60
31331;BME280;34067;39.548;-76.088;2023-04-21T12:24:21;101719.07;;;13.20;87.42
31331;BME280;34067;39.548;-76.088;2023-04-21T12:26:49;101716.04;;;13.25;84.33
31331;BME280;34067;39.548;-76.088;2023-04-21T12:29:17;101715.32;;;12.62;89.10
31331;BME280;34067;39.548;-76.088;2023-04-21T12:31:45;101715.31;;;12.55;89.90
31331;BME280;34067;39.548;-76.088;2023-04-21T12:34:13;101711.87;;;13.14;85.53
31331;BME280;34067;39.548;-76.088;2023-04-21T12:36:41;101714.59;;;12.21;89.04
31331;BME280;34067;39.548;-76.088;2023-04-21T12:39:09;101719.59;;;13.53;85.73
31331;BME280;34067;39.548;-76.088;2023-04-21T12:41:37;101717.14;;;13.03;86.62
31331;BME280;34067;39.548;-76.088;2023-04-21T12:44:05;101715.79;;;12.76;88.58